createdAt,value
2023-02-14T00:02:43.632Z,6.50
2023-02-14T00:06:25.385Z,6.50
2023-02-14T00:10:07.986Z,6.50
2023-02-14T00:14:08.789Z,6.50
2023-02-14T00:17:55.787Z,6.50
2023-02-14T00:21:38.751Z,6.50
2023-02-14T00:25:20.558Z,6.40
2023-02-14T00:29:02.511Z,6.40
2023-02-14T00:32:44.293Z,6.40
2023-02-14T00:36:26.539Z,6.40
2023-02-14T00:40:11.650Z,6.40
2023-02-14T00:43:54.028Z,6.40
2023-02-14T00:47:35.776Z,6.30
2023-02-14T00:51:18.757Z,6.20
2023-02-14T00:55:00.490Z,6.10
2023-02-14T00:58:43.046Z,6.10
2023-02-14T01:02:27.934Z,6.00
2023-02-14T01:06:09.735Z,5.90
2023-02-14T01:09:51.476Z,5.90
2023-02-14T01:13:33.185Z,5.80
2023-02-14T01:17:17.714Z,5.80
2023-02-14T01:21:18.676Z,5.80
2023-02-14T01:25:03.033Z,5.80
2023-02-14T01:28:45.564Z,5.80
2023-02-14T01:32:31.402Z,5.70
2023-02-14T01:36:20.324Z,5.70
2023-02-14T01:40:02.919Z,5.60
2023-02-14T01:44:27.582Z,5.60
2023-02-14T01:48:11.192Z,5.60
2023-02-14T01:52:40.372Z,5.50
2023-02-14T01:56:29.310Z,5.50
2023-02-14T02:00:30.394Z,5.40
2023-02-14T02:04:16.759Z,5.40
2023-02-14T02:08:00.799Z,5.40
2023-02-14T02:11:44.567Z,5.40
2023-02-14T02:15:31.659Z,5.40
2023-02-14T02:19:16.218Z,5.40
2023-02-14T02:23:09.881Z,5.30
2023-02-14T02:26:54.623Z,5.40
2023-02-14T02:31:22.826Z,5.40
2023-02-14T02:35:05.622Z,5.40
2023-02-14T02:38:58.980Z,5.40
2023-02-14T02:42:40.647Z,5.40
2023-02-14T02:46:48.790Z,5.50
2023-02-14T02:50:56.433Z,5.40
2023-02-14T02:54:43.580Z,5.50
2023-02-14T02:58:33.157Z,5.50
2023-02-14T03:02:21.331Z,5.50
2023-02-14T03:06:03.323Z,5.60
2023-02-14T03:09:53.217Z,5.60
2023-02-14T03:14:15.801Z,5.50
2023-02-14T03:18:13.852Z,5.60
2023-02-14T03:22:37.103Z,5.60
2023-02-14T03:26:22.380Z,5.60
2023-02-14T03:30:36.669Z,5.60
2023-02-14T03:34:30.056Z,5.70
2023-02-14T03:38:18.751Z,5.70
2023-02-14T03:42:06.348Z,5.80
2023-02-14T03:45:54.719Z,5.90
2023-02-14T03:49:41.365Z,5.90
2023-02-14T03:53:28.186Z,6.00
2023-02-14T03:57:19.714Z,6.10
2023-02-14T04:01:10.834Z,6.00
2023-02-14T04:04:54.097Z,6.10
2023-02-14T04:08:35.923Z,6.10
2023-02-14T04:12:26.564Z,6.10
2023-02-14T04:16:14.274Z,6.20
2023-02-14T04:19:56.085Z,6.20
2023-02-14T04:23:37.856Z,6.20
2023-02-14T04:27:19.573Z,6.20
2023-02-14T04:31:03.801Z,6.20
2023-02-14T04:34:46.073Z,6.20
2023-02-14T04:38:28.043Z,6.20
2023-02-14T04:42:10.115Z,6.30
2023-02-14T04:45:52.046Z,6.30
2023-02-14T04:49:34.205Z,6.30
2023-02-14T04:53:15.931Z,6.40
2023-02-14T04:56:57.718Z,6.40
2023-02-14T05:00:39.478Z,6.40
2023-02-14T05:04:21.637Z,6.40
2023-02-14T05:08:03.372Z,6.50
2023-02-14T05:11:45.111Z,6.50
2023-02-14T05:15:26.937Z,6.50
2023-02-14T05:19:08.987Z,6.50
2023-02-14T05:22:50.805Z,6.50
2023-02-14T05:26:32.561Z,6.60
2023-02-14T05:30:14.769Z,6.60
2023-02-14T05:33:56.505Z,6.70
2023-02-14T05:37:38.216Z,6.70
2023-02-14T05:41:19.929Z,6.70
2023-02-14T05:45:01.708Z,6.70
2023-02-14T05:48:44.388Z,6.80
2023-02-14T05:52:26.260Z,6.80
2023-02-14T05:56:08.286Z,6.90
2023-02-14T05:59:50.049Z,7.00
2023-02-14T06:03:31.835Z,7.00
2023-02-14T06:07:13.568Z,7.10
2023-02-14T06:10:55.340Z,7.10
2023-02-14T06:14:37.336Z,7.20
2023-02-14T06:18:19.129Z,7.20
2023-02-14T06:22:00.868Z,7.20
2023-02-14T06:25:42.671Z,7.20
2023-02-14T06:29:24.439Z,7.20
2023-02-14T06:33:06.169Z,7.20
2023-02-14T06:36:47.895Z,7.20
2023-02-14T06:40:29.664Z,7.20
2023-02-14T06:44:11.379Z,7.20
2023-02-14T06:47:53.108Z,7.20
2023-02-14T06:51:34.835Z,7.30
2023-02-14T06:55:16.721Z,7.30
2023-02-14T06:58:58.510Z,7.30
2023-02-14T07:02:40.504Z,7.30
2023-02-14T07:06:22.280Z,7.30
2023-02-14T07:10:04.679Z,7.40
2023-02-14T07:13:49.152Z,7.40
2023-02-14T07:17:31.147Z,7.40
2023-02-14T07:21:12.942Z,7.40
2023-02-14T07:24:57.880Z,7.40
2023-02-14T07:28:39.628Z,7.40
2023-02-14T07:32:21.561Z,7.30
2023-02-14T07:36:08.083Z,7.30
2023-02-14T07:39:49.837Z,7.30
2023-02-14T07:43:34.830Z,7.20
2023-02-14T07:47:16.577Z,7.20
2023-02-14T07:50:58.707Z,7.10
2023-02-14T07:54:40.584Z,7.10
2023-02-14T07:58:22.622Z,7.10
2023-02-14T08:02:04.990Z,7.10
2023-02-14T08:05:57.258Z,7.00
2023-02-14T08:09:39.176Z,7.00
2023-02-14T08:13:21.537Z,7.10
2023-02-14T08:17:03.616Z,7.20
2023-02-14T08:20:49.900Z,7.20
2023-02-14T08:24:32.274Z,7.20
2023-02-14T08:28:14.871Z,7.20
2023-02-14T08:32:00.266Z,7.20
2023-02-14T08:35:42.321Z,7.20
2023-02-14T08:39:24.173Z,7.30
2023-02-14T08:43:06.861Z,7.30
2023-02-14T08:46:48.680Z,7.40
2023-02-14T08:50:30.997Z,7.40
2023-02-14T08:54:13.058Z,7.40
2023-02-14T08:57:58.113Z,7.50
2023-02-14T09:01:39.875Z,7.50
2023-02-14T09:05:23.384Z,7.50
2023-02-14T09:09:06.273Z,7.50
2023-02-14T09:12:48.547Z,7.60
2023-02-14T09:16:30.434Z,7.60
2023-02-14T09:20:14.015Z,7.70
2023-02-14T09:23:55.787Z,7.70
2023-02-14T09:27:37.910Z,7.80
2023-02-14T09:31:22.823Z,7.80
2023-02-14T09:35:04.912Z,7.90
2023-02-14T09:38:47.068Z,7.90
2023-02-14T09:42:37.890Z,8.00
2023-02-14T09:46:21.404Z,8.00
2023-02-14T09:50:11.951Z,8.00
2023-02-14T09:53:56.778Z,8.10
2023-02-14T09:57:45.163Z,8.10
2023-02-14T10:01:33.241Z,8.10
2023-02-14T10:05:29.161Z,8.20
2023-02-14T10:09:22.775Z,8.20
2023-02-14T10:13:13.663Z,8.20
2023-02-14T10:17:09.435Z,8.30
2023-02-14T10:20:59.776Z,8.30
2023-02-14T10:24:53.594Z,8.30
2023-02-14T10:28:43.775Z,8.30
2023-02-14T10:32:38.163Z,8.40
2023-02-14T10:36:46.413Z,8.40
2023-02-14T10:40:52.902Z,8.50
2023-02-14T10:45:07.040Z,8.50
2023-02-14T10:48:51.781Z,8.60
2023-02-14T10:52:44.844Z,8.60
2023-02-14T10:56:43.387Z,8.60
2023-02-14T11:00:31.348Z,8.70
2023-02-14T11:04:15.869Z,8.70
2023-02-14T11:07:59.151Z,8.80
2023-02-14T11:11:43.419Z,8.80
2023-02-14T11:15:35.664Z,8.90
2023-02-14T11:19:31.190Z,8.90
2023-02-14T11:23:21.424Z,8.90
2023-02-14T11:27:12.301Z,9.00
2023-02-14T11:30:54.655Z,9.10
2023-02-14T11:34:45.015Z,9.10
2023-02-14T11:38:36.766Z,9.10
2023-02-14T11:42:42.539Z,9.20
2023-02-14T11:46:24.571Z,9.20
2023-02-14T11:50:22.393Z,9.30
2023-02-14T11:54:05.679Z,9.30
2023-02-14T11:57:47.377Z,9.40
2023-02-14T12:01:38.673Z,9.40
2023-02-14T12:05:31.285Z,9.50
2023-02-14T12:09:12.965Z,9.60
2023-02-14T12:13:07.364Z,9.60
2023-02-14T12:17:27.335Z,9.60
2023-02-14T12:21:35.558Z,9.70
2023-02-14T12:25:23.063Z,9.70
2023-02-14T12:29:29.721Z,9.80
2023-02-14T12:33:29.657Z,9.80
2023-02-14T12:37:31.540Z,9.90
2023-02-14T12:41:35.210Z,10.00
2023-02-14T12:45:26.568Z,10.00
2023-02-14T12:49:49.625Z,10.10
2023-02-14T12:53:38.625Z,10.10
2023-02-14T12:57:27.826Z,10.30
2023-02-14T13:01:29.010Z,10.30
2023-02-14T13:05:38.708Z,10.40
2023-02-14T13:09:59.290Z,10.40
2023-02-14T13:14:06.287Z,10.50
2023-02-14T13:17:56.314Z,10.50
2023-02-14T13:21:40.330Z,10.60
2023-02-14T13:25:33.669Z,10.60
2023-02-14T13:29:23.619Z,10.70
2023-02-14T13:33:17.235Z,10.70
2023-02-14T13:37:00.620Z,10.80
2023-02-14T13:40:43.044Z,10.80
2023-02-14T13:44:43.471Z,10.90
2023-02-14T13:48:29.322Z,10.90
2023-02-14T13:52:11.221Z,10.90
2023-02-14T13:55:55.915Z,11.00
2023-02-14T13:59:37.732Z,11.00
2023-02-14T14:03:28.874Z,11.00
2023-02-14T14:07:18.687Z,11.00
2023-02-14T14:11:11.008Z,11.10
2023-02-14T14:15:04.813Z,11.20
2023-02-14T14:18:46.820Z,11.20
2023-02-14T14:22:29.168Z,11.20
2023-02-14T14:26:34.001Z,11.20
2023-02-14T14:30:21.262Z,11.20
2023-02-14T14:34:03.063Z,11.30
2023-02-14T14:38:01.538Z,11.20
2023-02-14T14:41:47.288Z,11.30
2023-02-14T14:45:30.390Z,11.40
2023-02-14T14:49:12.959Z,11.30
2023-02-14T14:52:57.351Z,11.30
2023-02-14T14:56:54.980Z,11.30
2023-02-14T15:00:42.464Z,11.30
2023-02-14T15:04:33.242Z,11.30
2023-02-14T15:08:32.733Z,11.30
2023-02-14T15:12:38.501Z,11.30
2023-02-14T15:16:21.490Z,11.30
2023-02-14T15:20:23.699Z,11.30
2023-02-14T15:24:14.802Z,11.30
2023-02-14T15:27:57.252Z,11.30
2023-02-14T15:31:41.491Z,11.30
2023-02-14T15:35:27.438Z,11.30
2023-02-14T15:39:12.837Z,11.30
2023-02-14T15:42:58.193Z,11.30
2023-02-14T15:46:41.536Z,11.40
2023-02-14T15:50:26.036Z,11.40
2023-02-14T15:54:28.044Z,11.40
2023-02-14T15:58:20.335Z,11.30
2023-02-14T16:02:17.176Z,11.40
2023-02-14T16:06:00.190Z,11.30
2023-02-14T16:09:42.550Z,11.30
2023-02-14T16:13:36.672Z,11.30
2023-02-14T16:17:34.762Z,11.30
2023-02-14T16:21:28.244Z,11.20
2023-02-14T16:25:09.859Z,11.20
2023-02-14T16:28:51.572Z,11.20
2023-02-14T16:32:33.429Z,11.20
2023-02-14T16:36:23.604Z,11.10
2023-02-14T16:40:14.143Z,11.10
2023-02-14T16:43:56.908Z,11.10
2023-02-14T16:47:38.643Z,11.00
2023-02-14T16:51:27.358Z,11.00
2023-02-14T16:55:17.727Z,11.00
2023-02-14T16:59:00.123Z,10.90
2023-02-14T17:02:44.136Z,10.90
2023-02-14T17:06:27.853Z,10.80
2023-02-14T17:10:21.711Z,10.80
2023-02-14T17:14:03.956Z,10.70
2023-02-14T17:17:48.941Z,10.60
2023-02-14T17:21:31.012Z,10.60
2023-02-14T17:25:12.780Z,10.50
2023-02-14T17:28:54.600Z,10.50
2023-02-14T17:32:36.358Z,10.40
2023-02-14T17:36:18.094Z,10.40
2023-02-14T17:40:00.348Z,10.30
2023-02-14T17:43:42.443Z,10.30
2023-02-14T17:47:26.320Z,10.20
2023-02-14T17:51:09.374Z,10.20
2023-02-14T17:54:51.405Z,10.10
2023-02-14T17:58:33.298Z,10.10
2023-02-14T18:02:15.189Z,10.00
2023-02-14T18:05:58.640Z,10.00
2023-02-14T18:09:40.273Z,9.90
2023-02-14T18:13:23.897Z,9.90
2023-02-14T18:17:05.952Z,9.80
2023-02-14T18:20:58.474Z,9.80
2023-02-14T18:24:40.415Z,9.80
2023-02-14T18:28:23.705Z,9.70
2023-02-14T18:32:05.686Z,9.70
2023-02-14T18:35:47.905Z,9.70
2023-02-14T18:39:29.751Z,9.60
2023-02-14T18:43:12.002Z,9.60
2023-02-14T18:46:53.767Z,9.50
2023-02-14T18:50:35.664Z,9.50
2023-02-14T18:54:17.456Z,9.40
2023-02-14T18:57:59.254Z,9.40
2023-02-14T19:01:45.554Z,9.40
2023-02-14T19:05:27.327Z,9.30
2023-02-14T19:09:14.078Z,9.30
2023-02-14T19:12:55.979Z,9.20
2023-02-14T19:16:52.201Z,9.20
2023-02-14T19:20:33.962Z,9.20
2023-02-14T19:24:17.502Z,9.10
2023-02-14T19:27:59.275Z,9.10
2023-02-14T19:31:43.747Z,9.00
2023-02-14T19:35:25.895Z,9.00
2023-02-14T19:39:07.729Z,8.90
2023-02-14T19:42:50.239Z,8.90
2023-02-14T19:46:32.998Z,8.80
2023-02-14T19:50:14.874Z,8.80
2023-02-14T19:53:58.336Z,8.80
2023-02-14T19:57:41.125Z,8.70
2023-02-14T20:01:34.529Z,8.70
2023-02-14T20:05:18.259Z,8.70
2023-02-14T20:09:00.068Z,8.60
2023-02-14T20:12:41.890Z,8.50
2023-02-14T20:16:25.002Z,8.50
2023-02-14T20:20:08.390Z,8.40
2023-02-14T20:23:50.348Z,8.40
2023-02-14T20:27:32.093Z,8.30
2023-02-14T20:31:15.902Z,8.30
2023-02-14T20:34:58.648Z,8.20
2023-02-14T20:38:40.605Z,8.10
2023-02-14T20:42:23.507Z,8.10
2023-02-14T20:46:07.054Z,8.10
2023-02-14T20:49:49.920Z,8.00
2023-02-14T20:53:33.174Z,8.00
2023-02-14T20:57:15.118Z,7.90
2023-02-14T21:00:57.085Z,7.90
2023-02-14T21:04:38.942Z,7.80
2023-02-14T21:08:20.664Z,7.80
2023-02-14T21:12:02.558Z,7.80
2023-02-14T21:15:44.349Z,7.80
2023-02-14T21:19:28.539Z,7.70
2023-02-14T21:23:10.474Z,7.70
2023-02-14T21:26:52.299Z,7.70
2023-02-14T21:30:34.055Z,7.60
2023-02-14T21:34:16.675Z,7.60
2023-02-14T21:37:58.530Z,7.50
2023-02-14T21:41:40.347Z,7.50
2023-02-14T21:45:40.897Z,7.50
2023-02-14T21:49:41.227Z,7.40
2023-02-14T21:53:22.951Z,7.40
2023-02-14T21:57:04.703Z,7.30
2023-02-14T22:00:48.123Z,7.30
2023-02-14T22:04:29.889Z,7.20
2023-02-14T22:08:11.884Z,7.20
2023-02-14T22:11:53.665Z,7.20
2023-02-14T22:15:37.464Z,7.10
2023-02-14T22:19:19.224Z,7.10
2023-02-14T22:23:01.037Z,7.10
2023-02-14T22:26:43.039Z,7.00
2023-02-14T22:30:24.912Z,7.00
2023-02-14T22:34:08.969Z,7.00
2023-02-14T22:37:50.764Z,7.00
2023-02-14T22:41:37.588Z,6.90
2023-02-14T22:45:19.430Z,7.00
2023-02-14T22:49:01.198Z,6.90
2023-02-14T22:52:42.900Z,6.80
2023-02-14T22:56:27.068Z,6.90
2023-02-14T23:00:11.627Z,6.80
2023-02-14T23:03:58.926Z,6.80
2023-02-14T23:07:40.715Z,6.80
2023-02-14T23:11:25.573Z,6.70
2023-02-14T23:15:28.868Z,6.70
2023-02-14T23:19:40.872Z,6.70
2023-02-14T23:23:22.601Z,6.70
2023-02-14T23:27:08.866Z,6.60
2023-02-14T23:30:50.603Z,6.60
2023-02-14T23:34:34.480Z,6.60
2023-02-14T23:38:16.205Z,6.60
2023-02-14T23:41:58.119Z,6.60
2023-02-14T23:45:41.874Z,6.60
2023-02-14T23:49:25.178Z,6.50
2023-02-14T23:53:07.199Z,6.60
2023-02-14T23:56:50.533Z,6.60
